createdAt,value
2017-08-29T00:00:19.505Z,89.70
2017-08-29T00:02:46.949Z,89.30
2017-08-29T00:05:14.380Z,89.10
2017-08-29T00:07:41.819Z,88.80
2017-08-29T00:10:09.260Z,89.00
2017-08-29T00:12:36.768Z,89.50
2017-08-29T00:15:04.192Z,89.80
2017-08-29T00:17:31.649Z,90.00
2017-08-29T00:19:59.080Z,90.00
2017-08-29T00:22:26.516Z,90.00
2017-08-29T00:24:53.957Z,90.00
2017-08-29T00:27:21.385Z,90.00
2017-08-29T00:29:48.820Z,89.70
2017-08-29T00:32:16.274Z,89.50
2017-08-29T00:34:43.711Z,89.90
2017-08-29T00:37:11.144Z,89.80
2017-08-29T00:39:38.585Z,89.60
2017-08-29T00:42:06.016Z,90.00
2017-08-29T00:44:33.474Z,89.80
2017-08-29T00:47:00.917Z,89.80
2017-08-29T00:49:28.365Z,89.90
2017-08-29T00:51:55.796Z,90.20
2017-08-29T00:54:23.232Z,90.30
2017-08-29T00:56:51.496Z,90.30
2017-08-29T00:59:18.944Z,90.50
2017-08-29T01:01:46.381Z,90.30
2017-08-29T01:04:13.825Z,90.40
2017-08-29T01:06:41.266Z,90.50
2017-08-29T01:09:08.702Z,90.50
2017-08-29T01:11:36.128Z,90.40
2017-08-29T01:14:03.597Z,90.50
2017-08-29T01:16:31.032Z,90.50
2017-08-29T01:18:58.472Z,90.60
2017-08-29T01:21:25.910Z,90.70
2017-08-29T01:23:53.342Z,90.70
2017-08-29T01:26:20.783Z,90.60
2017-08-29T01:28:48.232Z,90.40
2017-08-29T01:31:15.723Z,90.30
2017-08-29T01:33:43.144Z,90.00
2017-08-29T01:36:10.585Z,89.50
2017-08-29T01:38:38.064Z,90.30
2017-08-29T01:41:07.579Z,89.70
2017-08-29T01:43:35.004Z,89.80
2017-08-29T01:46:02.440Z,89.70
2017-08-29T01:48:29.869Z,89.30
2017-08-29T01:50:57.312Z,89.90
2017-08-29T01:53:24.744Z,89.70
2017-08-29T01:55:52.184Z,89.70
2017-08-29T01:58:19.663Z,90.00
2017-08-29T02:00:47.128Z,90.10
2017-08-29T02:03:14.551Z,90.20
2017-08-29T02:05:41.988Z,90.00
2017-08-29T02:08:09.426Z,90.50
2017-08-29T02:10:36.865Z,90.10
2017-08-29T02:13:05.116Z,90.10
2017-08-29T02:15:32.548Z,90.10
2017-08-29T02:17:59.983Z,90.00
2017-08-29T02:20:27.412Z,90.00
2017-08-29T02:22:54.856Z,90.10
2017-08-29T02:25:23.052Z,89.80
2017-08-29T02:27:50.495Z,89.70
2017-08-29T02:30:17.933Z,90.00
2017-08-29T02:32:45.369Z,90.00
2017-08-29T02:35:12.804Z,90.00
2017-08-29T02:37:40.240Z,90.10
2017-08-29T02:40:07.672Z,90.10
2017-08-29T02:42:35.116Z,90.20
2017-08-29T02:45:02.549Z,90.10
2017-08-29T02:47:29.988Z,90.30
2017-08-29T02:49:57.419Z,90.30
2017-08-29T02:52:24.856Z,90.40
2017-08-29T02:54:52.291Z,90.40
2017-08-29T02:57:19.732Z,90.40
2017-08-29T02:59:47.164Z,90.50
2017-08-29T03:02:14.609Z,90.40
2017-08-29T03:04:42.036Z,90.50
2017-08-29T03:07:09.476Z,90.60
2017-08-29T03:09:36.908Z,90.60
2017-08-29T03:12:04.352Z,90.40
2017-08-29T03:14:31.785Z,90.30
2017-08-29T03:16:59.224Z,90.20
2017-08-29T03:19:26.672Z,90.10
2017-08-29T03:21:54.100Z,90.10
2017-08-29T03:24:21.540Z,90.20
2017-08-29T03:26:48.972Z,89.80
2017-08-29T03:29:16.413Z,88.90
2017-08-29T03:31:43.839Z,89.20
2017-08-29T03:34:11.280Z,89.50
2017-08-29T03:36:38.713Z,89.30
2017-08-29T03:39:06.148Z,89.60
2017-08-29T03:41:33.579Z,89.80
2017-08-29T03:44:01.028Z,89.70
2017-08-29T03:46:28.465Z,90.10
2017-08-29T03:48:55.900Z,89.80
2017-08-29T03:51:23.332Z,89.90
2017-08-29T03:53:50.779Z,90.10
2017-08-29T03:56:18.984Z,90.10
2017-08-29T03:58:46.419Z,90.10
2017-08-29T04:01:13.852Z,90.00
2017-08-29T04:03:45.079Z,90.10
2017-08-29T04:06:12.507Z,90.30
2017-08-29T04:08:39.944Z,89.80
2017-08-29T04:11:07.371Z,89.10
2017-08-29T04:13:34.807Z,89.10
2017-08-29T04:16:02.235Z,89.00
2017-08-29T04:18:29.682Z,88.70
2017-08-29T04:20:57.127Z,88.70
2017-08-29T04:23:24.552Z,88.60
2017-08-29T04:25:51.984Z,88.60
2017-08-29T04:28:19.413Z,88.30
2017-08-29T04:30:46.843Z,88.60
2017-08-29T04:33:14.275Z,88.60
2017-08-29T04:35:41.712Z,88.50
2017-08-29T04:38:09.148Z,88.40
2017-08-29T04:40:36.601Z,88.60
2017-08-29T04:43:04.027Z,88.70
2017-08-29T04:45:31.511Z,88.80
2017-08-29T04:47:58.924Z,88.70
2017-08-29T04:50:26.384Z,88.50
2017-08-29T04:52:53.813Z,88.40
2017-08-29T04:55:21.256Z,88.20
2017-08-29T04:57:48.676Z,88.30
2017-08-29T05:00:16.111Z,88.50
2017-08-29T05:02:43.540Z,88.90
2017-08-29T05:05:10.983Z,88.80
2017-08-29T05:07:38.414Z,88.60
2017-08-29T05:10:05.856Z,88.50
2017-08-29T05:12:33.285Z,88.60
2017-08-29T05:15:00.712Z,88.30
2017-08-29T05:17:28.152Z,88.00
2017-08-29T05:19:55.603Z,87.90
2017-08-29T05:22:23.050Z,88.30
2017-08-29T05:24:50.476Z,87.70
2017-08-29T05:27:17.924Z,87.60
2017-08-29T05:29:45.336Z,87.60
2017-08-29T05:32:12.774Z,87.50
2017-08-29T05:34:40.244Z,87.70
2017-08-29T05:37:07.672Z,88.10
2017-08-29T05:39:35.108Z,88.30
2017-08-29T05:42:02.540Z,87.60
2017-08-29T05:44:30.316Z,87.10
2017-08-29T05:46:57.751Z,88.10
2017-08-29T05:49:25.181Z,87.60
2017-08-29T05:51:52.646Z,88.00
2017-08-29T05:54:20.104Z,86.60
2017-08-29T05:56:47.571Z,87.60
2017-08-29T05:59:14.991Z,87.90
2017-08-29T06:01:42.428Z,87.60
2017-08-29T06:04:09.881Z,87.40
2017-08-29T06:06:37.295Z,87.70
2017-08-29T06:09:04.732Z,87.20
2017-08-29T06:11:32.164Z,86.90
2017-08-29T06:13:59.595Z,86.10
2017-08-29T06:16:27.023Z,85.50
2017-08-29T06:18:54.458Z,85.40
2017-08-29T06:21:21.875Z,84.60
2017-08-29T06:23:49.304Z,85.20
2017-08-29T06:26:16.740Z,85.00
2017-08-29T06:28:44.177Z,84.40
2017-08-29T06:31:11.596Z,84.00
2017-08-29T06:33:39.052Z,82.80
2017-08-29T06:36:06.499Z,84.40
2017-08-29T06:38:34.017Z,84.60
2017-08-29T06:41:01.444Z,83.30
2017-08-29T06:43:28.867Z,84.00
2017-08-29T06:45:56.291Z,81.50
2017-08-29T06:48:23.738Z,81.90
2017-08-29T06:50:54.524Z,81.90
2017-08-29T06:53:22.016Z,81.00
2017-08-29T06:55:49.443Z,79.00
2017-08-29T06:58:16.877Z,78.70
2017-08-29T07:00:44.305Z,78.90
2017-08-29T07:03:11.744Z,78.20
2017-08-29T07:05:39.164Z,77.80
2017-08-29T07:08:06.604Z,77.30
2017-08-29T07:10:34.032Z,77.80
2017-08-29T07:13:01.472Z,76.60
2017-08-29T07:15:28.888Z,73.20
2017-08-29T07:17:56.312Z,72.10
2017-08-29T07:20:23.736Z,70.10
2017-08-29T07:22:51.160Z,70.40
2017-08-29T07:25:18.615Z,68.50
2017-08-29T07:27:46.036Z,67.70
2017-08-29T07:30:13.528Z,67.30
2017-08-29T07:32:40.951Z,65.00
2017-08-29T07:35:08.379Z,63.50
2017-08-29T07:37:35.800Z,62.40
2017-08-29T07:40:03.236Z,62.20
2017-08-29T07:42:30.656Z,62.40
2017-08-29T07:44:58.084Z,62.60
2017-08-29T07:47:25.506Z,61.80
2017-08-29T07:49:52.937Z,62.20
2017-08-29T07:52:20.359Z,61.90
2017-08-29T07:54:47.788Z,60.50
2017-08-29T07:57:15.213Z,59.70
2017-08-29T07:59:42.643Z,58.80
2017-08-29T08:02:10.069Z,59.10
2017-08-29T08:04:37.520Z,58.80
2017-08-29T08:07:04.943Z,58.80
2017-08-29T08:09:32.388Z,60.60
2017-08-29T08:11:59.808Z,58.50
2017-08-29T08:14:27.240Z,57.20
2017-08-29T08:16:54.671Z,58.00
2017-08-29T08:19:22.120Z,56.20
2017-08-29T08:21:49.548Z,57.50
2017-08-29T08:24:16.972Z,57.30
2017-08-29T08:26:44.398Z,58.50
2017-08-29T08:29:11.881Z,55.70
2017-08-29T08:31:39.311Z,58.90
2017-08-29T08:34:06.735Z,57.90
2017-08-29T08:36:34.164Z,55.50
2017-08-29T08:39:01.592Z,55.00
2017-08-29T08:41:29.056Z,56.10
2017-08-29T08:43:56.487Z,54.50
2017-08-29T08:46:23.896Z,55.00
2017-08-29T08:48:51.339Z,53.40
2017-08-29T08:51:18.763Z,54.10
2017-08-29T08:53:46.188Z,53.80
2017-08-29T08:56:13.617Z,56.00
2017-08-29T08:58:41.039Z,55.50
2017-08-29T09:01:08.474Z,57.90
2017-08-29T09:03:35.907Z,57.10
2017-08-29T09:06:03.342Z,54.10
2017-08-29T09:08:30.756Z,52.40
2017-08-29T09:10:58.183Z,54.20
2017-08-29T09:13:25.608Z,52.80
2017-08-29T09:15:53.054Z,53.60
2017-08-29T09:18:20.456Z,52.60
2017-08-29T09:20:47.883Z,52.60
2017-08-29T09:23:15.303Z,54.40
2017-08-29T09:25:42.742Z,52.90
2017-08-29T09:28:10.168Z,53.30
2017-08-29T09:30:37.590Z,55.80
2017-08-29T09:33:05.024Z,53.30
2017-08-29T09:35:32.445Z,56.10
2017-08-29T09:37:59.872Z,50.70
2017-08-29T09:40:27.316Z,50.50
2017-08-29T09:42:54.748Z,50.50
2017-08-29T09:45:22.176Z,50.00
2017-08-29T09:47:49.604Z,48.80
2017-08-29T09:50:17.059Z,50.00
2017-08-29T09:52:44.508Z,50.40
2017-08-29T09:55:11.936Z,48.50
2017-08-29T09:57:39.446Z,48.80
2017-08-29T10:00:06.860Z,53.20
2017-08-29T10:02:34.287Z,55.00
2017-08-29T10:05:01.709Z,52.80
2017-08-29T10:07:29.158Z,52.80
2017-08-29T10:09:56.598Z,48.30
2017-08-29T10:12:24.067Z,51.40
2017-08-29T10:14:51.520Z,49.10
2017-08-29T10:17:18.941Z,50.30
2017-08-29T10:19:46.360Z,47.30
2017-08-29T10:22:13.792Z,48.00
2017-08-29T10:24:41.221Z,50.10
2017-08-29T10:27:08.657Z,48.50
2017-08-29T10:29:38.100Z,48.10
2017-08-29T10:32:05.532Z,49.90
2017-08-29T10:34:32.972Z,48.10
2017-08-29T10:37:00.388Z,47.10
2017-08-29T10:39:27.829Z,50.20
2017-08-29T10:41:55.251Z,47.20
2017-08-29T10:44:22.683Z,47.40
2017-08-29T10:46:50.104Z,49.50
2017-08-29T10:49:17.552Z,49.30
2017-08-29T10:51:44.976Z,48.00
2017-08-29T10:54:12.416Z,47.00
2017-08-29T10:56:40.876Z,45.50
2017-08-29T10:59:08.304Z,44.70
2017-08-29T11:01:35.733Z,45.80
2017-08-29T11:04:03.171Z,45.30
2017-08-29T11:06:31.596Z,43.20
2017-08-29T11:08:59.980Z,43.80
2017-08-29T11:11:27.401Z,44.10
2017-08-29T11:13:54.824Z,45.20
2017-08-29T11:16:22.251Z,46.00
2017-08-29T11:18:49.676Z,47.90
2017-08-29T11:21:17.130Z,44.50
2017-08-29T11:23:44.535Z,44.70
2017-08-29T11:26:11.952Z,45.80
2017-08-29T11:28:39.384Z,44.50
2017-08-29T11:31:06.817Z,45.90
2017-08-29T11:33:34.239Z,44.70
2017-08-29T11:36:01.665Z,44.90
2017-08-29T11:38:29.083Z,44.10
2017-08-29T11:40:56.515Z,43.70
2017-08-29T11:43:23.940Z,44.50
2017-08-29T11:45:51.381Z,46.00
2017-08-29T11:48:18.799Z,44.00
2017-08-29T11:50:46.226Z,44.40
2017-08-29T11:53:13.647Z,47.50
2017-08-29T11:55:41.075Z,48.60
2017-08-29T11:58:08.500Z,46.70
2017-08-29T12:00:35.960Z,46.70
2017-08-29T12:03:03.384Z,46.70
2017-08-29T12:05:30.825Z,46.20
2017-08-29T12:07:58.248Z,47.00
2017-08-29T12:10:25.679Z,49.80
2017-08-29T12:12:54.568Z,51.20
2017-08-29T12:15:21.999Z,51.00
2017-08-29T12:17:49.432Z,47.10
2017-08-29T12:20:16.864Z,46.80
2017-08-29T12:22:44.292Z,47.20
2017-08-29T12:25:11.760Z,47.30
2017-08-29T12:27:39.183Z,47.40
2017-08-29T12:30:06.681Z,46.90
2017-08-29T12:32:34.104Z,47.30
2017-08-29T12:35:01.556Z,47.10
2017-08-29T12:37:28.975Z,48.10
2017-08-29T12:39:56.394Z,47.30
2017-08-29T12:42:23.829Z,47.30
2017-08-29T12:44:51.252Z,46.90
2017-08-29T12:47:18.683Z,52.80
2017-08-29T12:49:46.103Z,53.30
2017-08-29T12:52:13.584Z,49.10
2017-08-29T12:54:42.066Z,47.50
2017-08-29T12:57:09.495Z,50.30
2017-08-29T12:59:36.981Z,50.50
2017-08-29T13:02:04.417Z,47.50
2017-08-29T13:04:31.848Z,51.30
2017-08-29T13:06:59.280Z,48.70
2017-08-29T13:09:26.803Z,52.30
2017-08-29T13:11:54.236Z,47.90
2017-08-29T13:14:21.681Z,49.40
2017-08-29T13:16:49.220Z,49.50
2017-08-29T13:19:16.647Z,49.00
2017-08-29T13:21:44.095Z,49.10
2017-08-29T13:24:11.525Z,50.40
2017-08-29T13:26:38.956Z,49.00
2017-08-29T13:29:06.388Z,50.70
2017-08-29T13:31:33.816Z,48.80
2017-08-29T13:34:01.244Z,49.60
2017-08-29T13:36:28.688Z,50.60
2017-08-29T13:38:56.116Z,55.80
2017-08-29T13:41:23.540Z,55.50
2017-08-29T13:43:50.968Z,55.50
2017-08-29T13:46:18.409Z,51.10
2017-08-29T13:48:45.828Z,50.10
2017-08-29T13:51:13.260Z,50.50
2017-08-29T13:53:40.699Z,53.20
2017-08-29T13:56:08.125Z,53.20
2017-08-29T13:58:36.257Z,51.30
2017-08-29T14:01:03.680Z,54.00
2017-08-29T14:03:31.134Z,55.40
2017-08-29T14:05:58.632Z,52.20
2017-08-29T14:08:26.087Z,53.30
2017-08-29T14:10:53.520Z,55.10
2017-08-29T14:13:20.957Z,54.40
2017-08-29T14:15:48.389Z,52.10
2017-08-29T14:18:15.812Z,52.20
2017-08-29T14:20:43.239Z,53.80
2017-08-29T14:23:10.673Z,55.00
2017-08-29T14:25:38.100Z,50.60
2017-08-29T14:28:05.536Z,52.30
2017-08-29T14:30:32.964Z,52.90
2017-08-29T14:33:00.464Z,51.70
2017-08-29T14:35:27.891Z,51.40
2017-08-29T14:37:56.392Z,48.60
2017-08-29T14:40:24.076Z,53.20
2017-08-29T14:42:51.512Z,50.80
2017-08-29T14:45:18.964Z,55.10
2017-08-29T14:47:58.096Z,57.60
2017-08-29T14:50:25.520Z,54.20
2017-08-29T14:52:53.108Z,51.10
2017-08-29T14:55:20.528Z,49.10
2017-08-29T14:57:47.958Z,50.90
2017-08-29T15:00:15.379Z,51.30
2017-08-29T15:02:42.808Z,50.10
2017-08-29T15:05:10.244Z,51.10
2017-08-29T15:07:37.669Z,50.80
2017-08-29T15:10:05.104Z,51.70
2017-08-29T15:12:32.554Z,49.70
2017-08-29T15:15:00.004Z,48.90
2017-08-29T15:17:27.443Z,49.00
2017-08-29T15:19:54.864Z,50.10
2017-08-29T15:22:22.292Z,53.10
2017-08-29T15:24:49.720Z,53.40
2017-08-29T15:27:17.156Z,51.10
2017-08-29T15:29:48.139Z,50.00
2017-08-29T15:32:15.564Z,52.00
2017-08-29T15:34:43.056Z,51.30
2017-08-29T15:37:10.486Z,53.50
2017-08-29T15:39:37.908Z,54.00
2017-08-29T15:42:05.453Z,53.50
2017-08-29T15:44:32.893Z,51.40
2017-08-29T15:47:00.312Z,52.00
2017-08-29T15:49:27.751Z,55.40
2017-08-29T15:51:55.172Z,54.00
2017-08-29T15:54:22.631Z,55.90
2017-08-29T15:56:50.056Z,57.60
2017-08-29T15:59:17.476Z,58.40
2017-08-29T16:01:44.984Z,52.30
2017-08-29T16:04:12.412Z,57.60
2017-08-29T16:06:39.848Z,58.90
2017-08-29T16:09:07.277Z,58.80
2017-08-29T16:11:34.705Z,58.70
2017-08-29T16:14:02.158Z,60.30
2017-08-29T16:16:29.593Z,58.30
2017-08-29T16:18:57.015Z,60.60
2017-08-29T16:21:24.464Z,61.00
2017-08-29T16:23:51.891Z,60.00
2017-08-29T16:26:19.319Z,61.80
2017-08-29T16:28:46.800Z,59.70
2017-08-29T16:31:14.267Z,58.60
2017-08-29T16:33:42.604Z,60.30
2017-08-29T16:36:10.105Z,62.00
2017-08-29T16:38:37.528Z,62.40
2017-08-29T16:41:05.026Z,60.80
2017-08-29T16:43:32.464Z,62.00
2017-08-29T16:45:59.898Z,60.80
2017-08-29T16:48:27.335Z,61.50
2017-08-29T16:50:54.766Z,63.00
2017-08-29T16:53:22.195Z,63.10
2017-08-29T16:55:49.620Z,63.40
2017-08-29T16:58:17.055Z,64.10
2017-08-29T17:00:44.486Z,64.60
2017-08-29T17:03:11.922Z,65.10
2017-08-29T17:05:39.356Z,65.80
2017-08-29T17:08:06.815Z,66.00
2017-08-29T17:10:34.244Z,65.20
2017-08-29T17:13:01.766Z,66.40
2017-08-29T17:15:29.185Z,66.90
2017-08-29T17:17:56.623Z,67.10
2017-08-29T17:20:24.044Z,67.20
2017-08-29T17:22:53.529Z,67.30
2017-08-29T17:25:20.983Z,65.70
2017-08-29T17:27:48.401Z,65.70
2017-08-29T17:30:15.844Z,67.40
2017-08-29T17:32:43.272Z,66.80
2017-08-29T17:35:10.704Z,65.60
2017-08-29T17:37:38.139Z,66.30
2017-08-29T17:40:05.624Z,68.30
2017-08-29T17:42:33.087Z,69.30
2017-08-29T17:45:00.507Z,69.80
2017-08-29T17:47:27.985Z,70.10
2017-08-29T17:49:55.472Z,68.30
2017-08-29T17:52:22.905Z,68.60
2017-08-29T17:54:50.348Z,69.60
2017-08-29T17:57:17.812Z,70.50
2017-08-29T17:59:45.250Z,70.70
2017-08-29T18:02:12.675Z,72.20
2017-08-29T18:04:40.112Z,71.20
2017-08-29T18:07:07.564Z,70.30
2017-08-29T18:09:35.004Z,70.80
2017-08-29T18:12:02.427Z,71.90
2017-08-29T18:14:29.919Z,72.20
2017-08-29T18:16:57.352Z,73.00
2017-08-29T18:19:24.792Z,73.90
2017-08-29T18:21:52.221Z,73.90
2017-08-29T18:24:20.676Z,74.00
2017-08-29T18:26:48.136Z,75.60
2017-08-29T18:29:15.559Z,76.70
2017-08-29T18:31:42.987Z,76.20
2017-08-29T18:34:10.426Z,74.50
2017-08-29T18:36:37.860Z,74.70
2017-08-29T18:39:05.312Z,74.70
2017-08-29T18:41:32.756Z,74.40
2017-08-29T18:44:00.193Z,75.90
2017-08-29T18:46:27.633Z,77.10
2017-08-29T18:48:55.067Z,76.80
2017-08-29T18:51:22.513Z,77.10
2017-08-29T18:53:49.957Z,77.70
2017-08-29T18:56:17.440Z,78.20
2017-08-29T18:58:46.921Z,78.70
2017-08-29T19:01:14.346Z,79.20
2017-08-29T19:03:41.777Z,79.80
2017-08-29T19:06:09.227Z,79.20
2017-08-29T19:08:37.658Z,79.00
2017-08-29T19:11:05.100Z,78.90
2017-08-29T19:13:32.536Z,79.60
2017-08-29T19:15:59.970Z,79.20
2017-08-29T19:18:27.397Z,79.90
2017-08-29T19:20:54.841Z,80.20
2017-08-29T19:23:22.269Z,80.90
2017-08-29T19:25:49.756Z,80.30
2017-08-29T19:28:17.212Z,81.30
2017-08-29T19:30:44.645Z,81.80
2017-08-29T19:33:12.088Z,82.30
2017-08-29T19:35:39.584Z,83.10
2017-08-29T19:38:07.041Z,83.70
2017-08-29T19:40:34.509Z,84.00
2017-08-29T19:43:01.961Z,84.40
2017-08-29T19:45:29.377Z,84.00
2017-08-29T19:47:56.816Z,84.40
2017-08-29T19:50:24.346Z,84.80
2017-08-29T19:52:51.792Z,84.60
2017-08-29T19:55:19.243Z,84.70
2017-08-29T19:57:46.713Z,84.70
2017-08-29T20:00:14.148Z,85.10
2017-08-29T20:02:41.822Z,85.70
2017-08-29T20:05:09.287Z,85.30
2017-08-29T20:07:36.771Z,85.10
2017-08-29T20:10:04.240Z,85.20
2017-08-29T20:12:31.678Z,85.10
2017-08-29T20:14:59.112Z,85.40
2017-08-29T20:17:26.625Z,85.30
2017-08-29T20:19:54.066Z,86.60
2017-08-29T20:22:21.504Z,86.50
2017-08-29T20:24:48.936Z,86.00
2017-08-29T20:27:16.373Z,86.40
2017-08-29T20:29:43.809Z,86.20
2017-08-29T20:32:13.246Z,86.00
2017-08-29T20:34:40.681Z,85.60
2017-08-29T20:37:08.117Z,85.30
2017-08-29T20:39:35.580Z,85.50
2017-08-29T20:42:03.014Z,85.50
2017-08-29T20:44:30.470Z,85.70
2017-08-29T20:46:57.919Z,85.40
2017-08-29T20:49:25.372Z,85.60
2017-08-29T20:51:52.831Z,85.90
2017-08-29T20:54:21.289Z,85.70
2017-08-29T20:56:48.726Z,85.90
2017-08-29T20:59:16.152Z,87.30
2017-08-29T21:01:43.580Z,87.50
2017-08-29T21:04:11.047Z,87.80
2017-08-29T21:06:38.444Z,88.00
2017-08-29T21:09:05.889Z,87.70
2017-08-29T21:11:33.332Z,88.00
2017-08-29T21:14:00.760Z,88.20
2017-08-29T21:16:28.189Z,88.70
2017-08-29T21:18:55.644Z,87.80
2017-08-29T21:21:23.053Z,87.40
2017-08-29T21:23:50.516Z,87.30
2017-08-29T21:26:17.966Z,87.60
2017-08-29T21:28:45.403Z,88.10
2017-08-29T21:31:12.846Z,88.10
2017-08-29T21:33:40.297Z,88.50
2017-08-29T21:36:07.736Z,87.20
2017-08-29T21:38:35.580Z,86.90
2017-08-29T21:41:03.064Z,86.90
2017-08-29T21:43:30.490Z,86.90
2017-08-29T21:45:57.928Z,88.00
2017-08-29T21:48:26.472Z,87.30
2017-08-29T21:50:53.912Z,87.00
2017-08-29T21:53:21.343Z,86.70
2017-08-29T21:55:48.784Z,87.20
2017-08-29T21:58:16.216Z,87.60
2017-08-29T22:00:43.680Z,87.80
2017-08-29T22:03:11.131Z,88.30
2017-08-29T22:05:38.552Z,88.30
2017-08-29T22:08:05.990Z,88.30
2017-08-29T22:10:33.427Z,88.50
2017-08-29T22:13:00.885Z,87.70
2017-08-29T22:15:28.330Z,87.40
2017-08-29T22:17:55.843Z,87.30
2017-08-29T22:20:23.312Z,87.30
2017-08-29T22:22:50.740Z,87.50
2017-08-29T22:25:18.189Z,87.70
2017-08-29T22:27:45.624Z,88.30
2017-08-29T22:30:13.051Z,88.50
2017-08-29T22:32:40.517Z,88.50
2017-08-29T22:35:07.924Z,88.40
2017-08-29T22:37:35.361Z,88.00
2017-08-29T22:40:02.855Z,88.00
2017-08-29T22:42:30.304Z,88.30
2017-08-29T22:44:57.735Z,88.30
2017-08-29T22:47:25.196Z,88.10
2017-08-29T22:49:53.745Z,87.80
2017-08-29T22:52:21.179Z,88.30
2017-08-29T22:54:48.612Z,88.10
2017-08-29T22:57:16.052Z,88.70
2017-08-29T22:59:43.584Z,88.40
2017-08-29T23:02:11.003Z,89.00
2017-08-29T23:04:38.853Z,89.00
2017-08-29T23:07:06.292Z,89.30
2017-08-29T23:09:33.724Z,89.60
2017-08-29T23:12:01.227Z,88.90
2017-08-29T23:14:28.692Z,89.10
2017-08-29T23:16:56.169Z,89.20
2017-08-29T23:19:23.597Z,88.80
2017-08-29T23:21:51.065Z,89.30
2017-08-29T23:24:18.503Z,88.80
2017-08-29T23:26:45.944Z,89.10
2017-08-29T23:29:13.390Z,89.10
2017-08-29T23:31:40.912Z,89.50
2017-08-29T23:34:08.341Z,90.00
2017-08-29T23:36:35.772Z,89.40
2017-08-29T23:39:03.212Z,89.60
2017-08-29T23:41:30.644Z,89.30
2017-08-29T23:43:58.082Z,89.30
2017-08-29T23:46:25.575Z,89.10
2017-08-29T23:48:53.016Z,89.10
2017-08-29T23:51:20.473Z,89.10
2017-08-29T23:53:47.914Z,89.10
2017-08-29T23:56:15.383Z,88.90
2017-08-29T23:58:42.791Z,89.30
